Time;durP1;ratioP1;P1;durP2;ratioP2;P2;SDS_P1;SDS_P2;PMS_P1;PMS_P2;Temp;Humidity;BMP_temperature;BMP_pressure;BME280_temperature;BME280_humidity;BME280_pressure;Samples;Min_cycle;Max_cycle;Signal;HPM_P1;HPM_P2
2023/04/07 00:01:31;;;;;;;20.57;15.77;;;7.60;99.90;;;;;;2611502;54;20150;-69
2023/04/07 00:07:18;;;;;;;20.70;17.40;;;7.60;99.90;;;;;;2613787;54;20371;-70
2023/04/07 00:13:06;;;;;;;22.73;16.80;;;7.60;99.90;;;;;;2613016;54;20139;-70
2023/04/07 00:18:54;;;;;;;19.90;17.40;;;7.60;99.90;;;;;;2611762;54;20150;-70
2023/04/07 00:24:42;;;;;;;24.20;17.70;;;7.70;99.90;;;;;;2612940;54;20987;-70
2023/04/07 00:30:29;;;;;;;24.90;17.87;;;7.70;99.90;;;;;;2612778;54;20129;-70
2023/04/07 00:36:17;;;;;;;21.47;17.70;;;7.70;99.90;;;;;;2612983;39;20535;-70
2023/04/07 00:39:34;;;;;;;21.60;18.50;;;7.70;99.90;;;;;;2612019;54;20395;-70
2023/04/07 00:42:03;;;;;;;23.40;17.73;;;7.70;99.90;;;;;;2611921;54;20677;-70
2023/04/07 00:47:51;;;;;;;23.13;18.37;;;7.70;99.90;;;;;;2612977;54;20375;-70
2023/04/07 00:53:39;;;;;;;22.90;18.93;;;7.70;99.90;;;;;;2613737;54;20154;-71
2023/04/07 00:59:30;;;;;;;24.53;19.97;;;7.70;99.90;;;;;;2612147;54;20427;-70
2023/04/07 01:24:55;;;;;;;24.23;18.90;;;7.80;99.90;;;;;;2612511;54;20354;-76
2023/04/07 01:30:44;;;;;;;26.30;20.80;;;7.80;99.90;;;;;;2612920;54;20391;-75
2023/04/07 01:36:32;;;;;;;28.20;21.60;;;7.80;99.90;;;;;;2612999;54;20374;-76
2023/04/07 01:39:34;;;;;;;26.17;22.33;;;7.80;99.90;;;;;;2612951;54;20416;-76
2023/04/07 01:42:02;;;;;;;30.23;22.27;;;7.90;99.90;;;;;;2613212;54;20415;-75
2023/04/07 01:47:51;;;;;;;28.60;23.00;;;7.90;99.90;;;;;;2612440;54;20399;-76
2023/04/07 01:53:39;;;;;;;30.60;22.47;;;7.90;99.90;;;;;;2612803;54;20407;-75
2023/04/07 01:59:27;;;;;;;33.40;23.10;;;7.90;99.90;;;;;;2612534;54;20146;-75
2023/04/07 02:05:19;;;;;;;33.50;25.03;;;7.90;99.90;;;;;;2610974;54;20146;-76
2023/04/07 02:11:09;;;;;;;30.13;24.40;;;7.90;99.90;;;;;;2613689;54;20916;-75
2023/04/07 02:17:00;;;;;;;31.20;22.03;;;7.90;99.90;;;;;;2612872;54;20399;-74
2023/04/07 02:22:47;;;;;;;35.63;24.70;;;8.00;99.90;;;;;;2612362;54;20419;-76
2023/04/07 02:28:35;;;;;;;31.80;22.00;;;7.90;99.90;;;;;;2613733;54;20142;-76
2023/04/07 02:34:23;;;;;;;36.90;25.30;;;8.00;99.90;;;;;;2613438;54;20247;-75
2023/04/07 02:44:07;;;;;;;28.80;20.40;;;8.00;99.90;;;;;;2613408;54;20407;-76
2023/04/07 02:49:54;;;;;;;32.23;22.43;;;8.10;99.90;;;;;;2613154;54;20453;-71
2023/04/07 02:55:42;;;;;;;37.50;24.73;;;8.20;99.90;;;;;;2612657;46;20160;-71
2023/04/07 03:01:29;;;;;;;34.57;24.07;;;8.20;99.90;;;;;;2611804;54;20126;-71
2023/04/07 03:07:17;;;;;;;33.73;24.30;;;8.20;99.90;;;;;;2612814;39;20506;-71
2023/04/07 03:13:07;;;;;;;45.77;26.73;;;8.30;99.90;;;;;;2612549;54;20228;-71
2023/04/07 03:18:54;;;;;;;46.77;29.20;;;8.30;99.90;;;;;;2612029;54;20375;-70
2023/04/07 03:24:42;;;;;;;49.93;27.50;;;8.30;99.90;;;;;;2611836;54;20556;-71
2023/04/07 03:30:31;;;;;;;52.70;30.53;;;8.40;99.90;;;;;;2613807;54;20123;-71
2023/04/07 03:36:19;;;;;;;58.57;28.23;;;8.40;99.90;;;;;;2612580;39;20905;-71
2023/04/07 03:39:36;;;;;;;53.70;29.07;;;8.40;99.90;;;;;;2611755;39;20646;-71
2023/04/07 03:42:02;;;;;;;51.80;29.00;;;8.40;99.90;;;;;;2612942;39;20398;-71
2023/04/07 03:47:50;;;;;;;47.53;25.27;;;8.40;99.90;;;;;;2613051;54;20364;-70
2023/04/07 03:53:37;;;;;;;50.27;30.73;;;8.40;99.90;;;;;;2611960;54;20976;-70
2023/04/07 03:59:25;;;;;;;65.33;32.47;;;8.40;99.90;;;;;;2611627;47;20122;-71
2023/04/07 04:05:13;;;;;;;52.47;29.63;;;8.40;99.90;;;;;;2613150;54;20161;-71
2023/04/07 04:11:01;;;;;;;60.67;29.90;;;8.40;99.90;;;;;;2613533;54;20130;-70
2023/04/07 04:16:49;;;;;;;49.07;28.10;;;8.40;99.90;;;;;;2613226;54;20135;-70
2023/04/07 04:22:36;;;;;;;48.70;28.13;;;8.40;99.90;;;;;;2612577;54;20130;-71
2023/04/07 04:28:24;;;;;;;55.37;27.00;;;8.40;99.90;;;;;;2614311;39;20543;-71
2023/04/07 04:34:12;;;;;;;44.37;27.00;;;8.40;99.90;;;;;;2613937;54;20802;-71
2023/04/07 04:44:05;;;;;;;45.30;27.40;;;8.40;99.90;;;;;;2613949;54;21000;-70
2023/04/07 04:49:53;;;;;;;48.20;26.60;;;8.30;99.90;;;;;;2611476;54;20554;-71
2023/04/07 04:55:45;;;;;;;46.23;24.07;;;8.30;99.90;;;;;;2613010;54;20130;-70
2023/04/07 05:01:33;;;;;;;42.57;26.23;;;8.40;99.90;;;;;;2610822;54;20386;-71
2023/04/07 05:07:21;;;;;;;49.63;26.37;;;8.30;99.90;;;;;;2612395;54;20150;-70
2023/04/07 05:13:09;;;;;;;41.93;25.00;;;8.30;99.90;;;;;;2613753;54;20634;-71
2023/04/07 05:18:56;;;;;;;51.07;26.80;;;8.30;99.90;;;;;;2612612;54;20400;-70
2023/04/07 05:24:44;;;;;;;40.43;24.13;;;8.30;99.90;;;;;;2613479;54;20154;-70
2023/04/07 05:30:32;;;;;;;50.50;23.87;;;8.20;99.90;;;;;;2613585;54;20143;-70
2023/04/07 05:36:20;;;;;;;45.27;23.60;;;8.20;99.90;;;;;;2612883;54;20161;-71
2023/04/07 05:39:04;;;;;;;39.80;23.07;;;8.20;99.90;;;;;;2610803;54;20757;-72
2023/04/07 05:45:36;;;;;;;36.20;20.30;;;8.10;99.90;;;;;;2613894;54;20418;-73
2023/04/07 05:51:23;;;;;;;25.27;16.93;;;8.20;99.90;;;;;;2613573;54;20358;-70
2023/04/07 05:57:11;;;;;;;25.93;13.60;;;8.10;99.90;;;;;;2612156;54;20633;-72
2023/04/07 06:03:00;;;;;;;23.20;13.80;;;8.10;99.90;;;;;;2612774;54;20206;-73
2023/04/07 06:08:48;;;;;;;23.27;14.60;;;8.20;99.90;;;;;;2612815;54;20439;-71
2023/04/07 06:14:36;;;;;;;25.20;15.23;;;8.10;99.90;;;;;;2613757;54;20151;-71
2023/04/07 06:20:26;;;;;;;25.03;13.37;;;8.10;99.90;;;;;;2614034;39;20543;-71
2023/04/07 06:26:14;;;;;;;23.10;13.07;;;8.10;99.90;;;;;;2611787;54;20427;-70
2023/04/07 06:32:02;;;;;;;23.77;13.97;;;8.10;99.90;;;;;;2612843;54;20138;-72
2023/04/07 06:37:50;;;;;;;23.77;14.10;;;8.10;99.90;;;;;;2612660;54;20150;-70
2023/04/07 06:41:07;;;;;;;22.67;13.57;;;8.10;99.90;;;;;;2612953;54;20909;-71
2023/04/07 06:43:33;;;;;;;26.83;15.20;;;8.10;99.90;;;;;;2611198;54;20395;-71
2023/04/07 06:49:20;;;;;;;31.30;16.43;;;8.10;99.90;;;;;;2612320;31;20787;-71
2023/04/07 06:55:09;;;;;;;25.53;16.80;;;8.10;99.90;;;;;;2611947;54;20131;-75
2023/04/07 07:00:56;;;;;;;31.33;16.53;;;8.10;99.90;;;;;;2609292;54;20367;-71
2023/04/07 07:06:44;;;;;;;32.77;17.27;;;8.20;99.90;;;;;;2613665;54;20644;-70
2023/04/07 07:12:32;;;;;;;31.67;16.87;;;8.10;99.90;;;;;;2612384;54;20122;-71
2023/04/07 07:18:20;;;;;;;25.23;17.07;;;8.10;99.90;;;;;;2613441;54;20129;-71
2023/04/07 07:24:07;;;;;;;27.80;15.50;;;8.10;99.90;;;;;;2612787;54;20130;-71
2023/04/07 07:29:55;;;;;;;32.20;15.80;;;8.10;99.90;;;;;;2612350;54;20151;-71
2023/04/07 07:35:43;;;;;;;22.13;14.40;;;8.20;99.90;;;;;;2611616;54;20680;-71
2023/04/07 07:45:39;;;;;;;28.50;16.73;;;8.20;99.90;;;;;;2611682;54;20383;-71
2023/04/07 07:51:27;;;;;;;27.30;15.37;;;8.20;99.90;;;;;;2611216;54;20419;-70
2023/04/07 07:57:14;;;;;;;29.20;15.03;;;8.30;99.90;;;;;;2612406;39;20766;-71
2023/04/07 08:03:02;;;;;;;21.80;15.77;;;8.30;99.90;;;;;;2613355;54;20545;-71
2023/04/07 08:08:50;;;;;;;29.83;16.70;;;8.40;99.90;;;;;;2608865;54;20226;-71
2023/04/07 08:14:38;;;;;;;33.57;18.63;;;8.40;99.90;;;;;;2614520;31;20587;-71
2023/04/07 08:20:26;;;;;;;27.47;16.63;;;8.40;99.90;;;;;;2613147;54;20139;-71
2023/04/07 08:26:14;;;;;;;33.70;16.17;;;8.40;99.90;;;;;;2613285;54;20371;-71
2023/04/07 08:32:02;;;;;;;28.83;17.07;;;8.60;99.90;;;;;;2611406;54;20126;-70
2023/04/07 08:37:49;;;;;;;23.90;15.33;;;8.60;99.90;;;;;;2613943;54;20246;-71
2023/04/07 08:41:06;;;;;;;25.10;16.70;;;8.60;99.90;;;;;;2613519;54;20394;-70
2023/04/07 08:43:35;;;;;;;26.97;15.93;;;8.70;99.90;;;;;;2614248;54;20166;-71
2023/04/07 08:49:26;;;;;;;22.27;13.23;;;8.70;99.90;;;;;;2612575;54;20532;-70
2023/04/07 08:55:14;;;;;;;19.40;13.27;;;8.80;99.90;;;;;;2614348;54;20914;-71
2023/04/07 09:01:04;;;;;;;24.30;14.50;;;8.80;99.90;;;;;;2613868;54;20391;-70
2023/04/07 09:04:07;;;;;;;24.43;13.93;;;8.80;99.90;;;;;;2613480;47;20411;-70
2023/04/07 09:06:34;;;;;;;26.60;13.90;;;8.80;99.90;;;;;;2614099;54;20435;-71
2023/04/07 09:12:21;;;;;;;24.80;15.30;;;8.80;99.90;;;;;;2614114;46;20375;-71
2023/04/07 09:18:09;;;;;;;19.77;13.50;;;8.80;99.90;;;;;;2614372;54;20145;-70
2023/04/07 09:23:57;;;;;;;25.03;13.30;;;9.00;99.90;;;;;;2613567;54;20146;-71
2023/04/07 09:29:46;;;;;;;21.93;14.27;;;8.90;99.90;;;;;;2615130;39;20507;-71
2023/04/07 09:45:38;;;;;;;25.30;13.87;;;8.90;99.90;;;;;;2612194;54;20371;-71
2023/04/07 09:51:26;;;;;;;20.17;10.97;;;8.90;99.90;;;;;;2609988;54;20374;-72
2023/04/07 09:57:16;;;;;;;16.10;10.97;;;9.00;99.90;;;;;;2610513;54;20414;-71
2023/04/07 10:03:04;;;;;;;20.77;11.23;;;9.00;99.90;;;;;;2610463;54;21092;-70
2023/04/07 10:08:52;;;;;;;13.87;10.40;;;9.10;99.90;;;;;;2608319;54;21049;-71
2023/04/07 10:14:45;;;;;;;14.03;9.70;;;9.20;99.90;;;;;;2613924;39;20552;-71
2023/04/07 10:20:34;;;;;;;16.87;11.00;;;9.20;99.90;;;;;;2613451;54;20367;-71
2023/04/07 10:26:25;;;;;;;14.67;9.30;;;9.30;99.90;;;;;;2612296;54;20487;-71
2023/04/07 10:32:13;;;;;;;15.23;9.47;;;9.30;99.90;;;;;;2613636;39;20819;-71
2023/04/07 10:38:09;;;;;;;9.40;6.63;;;9.30;99.90;;;;;;2613230;54;20395;-71
2023/04/07 10:43:57;;;;;;;10.63;7.13;;;9.20;99.90;;;;;;2612720;54;20387;-72
2023/04/07 10:50:19;;;;;;;10.27;7.00;;;9.30;99.90;;;;;;2613349;54;20407;-71
2023/04/07 10:56:07;;;;;;;10.60;7.50;;;9.20;99.90;;;;;;2612859;54;20482;-72
2023/04/07 11:02:13;;;;;;;16.77;9.10;;;9.30;99.90;;;;;;2613976;54;20158;-76
2023/04/07 11:08:04;;;;;;;14.83;10.40;;;9.40;99.90;;;;;;2613968;54;20569;-73
2023/04/07 11:13:52;;;;;;;13.10;9.47;;;9.20;99.90;;;;;;2613938;54;20387;-72
2023/04/07 11:19:53;;;;;;;12.83;9.20;;;9.10;99.90;;;;;;2614283;54;20126;-71
2023/04/07 11:25:45;;;;;;;14.03;9.50;;;9.00;99.90;;;;;;2613190;54;20363;-71
2023/04/07 11:31:33;;;;;;;14.93;9.30;;;9.00;99.90;;;;;;2613568;54;20415;-71
2023/04/07 11:37:23;;;;;;;14.83;8.67;;;8.90;99.90;;;;;;2610335;39;20624;-71
2023/04/07 11:43:19;;;;;;;15.63;10.00;;;9.00;99.90;;;;;;2609618;39;20850;-71
2023/04/07 11:49:12;;;;;;;12.60;8.63;;;9.10;99.90;;;;;;2608522;54;20395;-71
2023/04/07 11:55:01;;;;;;;12.67;8.67;;;8.90;99.90;;;;;;2612040;54;20395;-71
2023/04/07 12:01:07;;;;;;;13.00;8.90;;;8.90;99.90;;;;;;2608160;54;20423;-72
2023/04/07 12:13:31;;;;;;;11.73;7.07;;;8.80;99.90;;;;;;2607530;54;20464;-72
2023/04/07 12:19:19;;;;;;;9.43;8.07;;;8.70;99.90;;;;;;2608229;39;20668;-71
2023/04/07 12:25:07;;;;;;;11.77;9.67;;;8.60;99.90;;;;;;2609656;54;20134;-70
2023/04/07 12:30:54;;;;;;;10.53;8.57;;;8.70;99.90;;;;;;2608301;54;20375;-70
2023/04/07 12:36:43;;;;;;;10.63;9.53;;;8.90;99.90;;;;;;2612782;54;20145;-71
2023/04/07 12:45:53;;;;;;;11.10;9.57;;;9.10;99.90;;;;;;2612563;39;20787;-72
2023/04/07 12:51:40;;;;;;;10.40;9.30;;;9.00;99.90;;;;;;2612917;39;20507;-71
2023/04/07 12:57:28;;;;;;;10.50;8.80;;;8.90;99.90;;;;;;2612227;54;20158;-71
2023/04/07 13:03:16;;;;;;;10.40;9.40;;;9.00;99.90;;;;;;2611973;39;20639;-72
2023/04/07 13:09:03;;;;;;;13.20;10.93;;;9.20;99.90;;;;;;2613124;54;20118;-71
2023/04/07 13:14:51;;;;;;;10.97;8.63;;;9.00;99.90;;;;;;2609911;54;20127;-72
2023/04/07 13:20:39;;;;;;;11.17;10.07;;;9.20;99.90;;;;;;2608007;54;20118;-71
2023/04/07 13:26:27;;;;;;;11.17;9.20;;;9.20;99.90;;;;;;2607889;54;20130;-71
2023/04/07 13:32:15;;;;;;;13.30;9.37;;;9.20;99.90;;;;;;2608410;54;20175;-72
2023/04/07 13:38:03;;;;;;;8.20;7.37;;;9.40;99.90;;;;;;2608515;54;20937;-71
2023/04/07 13:41:23;;;;;;;7.90;7.10;;;9.40;99.90;;;;;;2612896;54;20408;-71
2023/04/07 13:43:49;;;;;;;7.20;6.50;;;9.30;99.90;;;;;;2611413;54;20403;-71
2023/04/07 13:49:37;;;;;;;7.07;6.37;;;9.20;99.90;;;;;;2610860;54;20127;-72
2023/04/07 13:55:25;;;;;;;7.17;6.40;;;9.50;99.90;;;;;;2612225;54;20122;-72
2023/04/07 14:01:12;;;;;;;6.30;5.10;;;9.50;99.90;;;;;;2612653;54;20418;-72
2023/04/07 14:07:00;;;;;;;6.57;5.67;;;9.40;99.90;;;;;;2608519;54;20130;-72
2023/04/07 14:12:48;;;;;;;6.53;5.93;;;9.50;99.90;;;;;;2608306;54;20539;-72
2023/04/07 14:18:36;;;;;;;7.03;6.37;;;9.50;99.90;;;;;;2607510;54;20160;-71
2023/04/07 14:24:23;;;;;;;220.53;108.97;;;9.60;99.90;;;;;;2613733;54;20654;-71
2023/04/07 14:30:11;;;;;;;7.00;6.30;;;9.30;99.90;;;;;;2609078;54;20131;-72
2023/04/07 14:35:59;;;;;;;6.10;5.50;;;9.60;99.90;;;;;;2609295;54;20569;-72
2023/04/07 14:45:56;;;;;;;7.50;6.40;;;9.50;99.90;;;;;;2613162;54;20897;-71
2023/04/07 14:51:44;;;;;;;5.33;4.80;;;9.60;99.90;;;;;;2609404;54;20416;-71
2023/04/07 14:57:32;;;;;;;6.63;6.03;;;9.60;99.90;;;;;;2609820;39;20806;-72
2023/04/07 15:03:19;;;;;;;6.23;5.60;;;9.80;99.90;;;;;;2611622;54;20171;-71
2023/04/07 15:06:23;;;;;;;6.37;5.77;;;9.70;99.90;;;;;;2608049;54;20416;-75
2023/04/07 15:08:48;;;;;;;6.67;6.07;;;9.70;99.90;;;;;;2609774;39;20612;-71
2023/04/07 15:14:36;;;;;;;6.70;5.70;;;9.60;99.90;;;;;;2613290;54;20150;-71
2023/04/07 15:20:24;;;;;;;7.80;6.50;;;9.50;99.90;;;;;;2613176;39;20600;-72
2023/04/07 15:26:12;;;;;;;7.00;6.40;;;9.40;99.90;;;;;;2607493;54;20142;-72
2023/04/07 15:31:59;;;;;;;8.30;7.37;;;9.40;99.90;;;;;;2610933;54;20665;-71
2023/04/07 15:37:47;;;;;;;9.20;8.30;;;9.50;99.90;;;;;;2607400;54;20910;-72
2023/04/07 15:43:36;;;;;;;7.70;7.00;;;9.50;99.90;;;;;;2607868;54;20185;-72
2023/04/07 15:49:24;;;;;;;8.93;8.03;;;9.60;99.90;;;;;;2609356;54;20391;-71
2023/04/07 15:55:11;;;;;;;9.80;8.80;;;9.50;99.90;;;;;;2609898;54;20158;-71
2023/04/07 16:00:59;;;;;;;11.10;10.00;;;9.30;99.90;;;;;;2610091;54;20166;-72
2023/04/07 16:06:47;;;;;;;12.23;11.00;;;9.20;99.90;;;;;;2608420;54;20150;-71
2023/04/07 16:12:36;;;;;;;13.27;11.97;;;9.20;99.90;;;;;;2608782;54;20265;-72
2023/04/07 16:18:24;;;;;;;11.43;10.30;;;9.40;99.90;;;;;;2608747;54;20422;-71
2023/04/07 16:24:11;;;;;;;13.53;11.50;;;9.30;99.90;;;;;;2609439;54;20759;-72
2023/04/07 16:29:59;;;;;;;11.37;10.27;;;9.30;99.90;;;;;;2610748;54;20127;-71
2023/04/07 16:35:47;;;;;;;11.10;10.00;;;9.30;99.90;;;;;;2613144;54;20134;-72
2023/04/07 16:45:58;;;;;;;42.17;27.20;;;9.30;99.90;;;;;;2612476;54;20475;-72
2023/04/07 16:51:46;;;;;;;11.40;10.30;;;9.80;99.90;;;;;;2612316;54;20968;-73
2023/04/07 16:57:34;;;;;;;61.13;49.87;;;9.30;99.90;;;;;;2612942;54;20170;-71
2023/04/07 17:03:23;;;;;;;21.47;19.33;;;9.50;99.90;;;;;;2612398;54;20170;-71
2023/04/07 17:09:14;;;;;;;131.90;117.87;;;9.50;99.90;;;;;;2613142;54;20368;-71
2023/04/07 17:15:02;;;;;;;1168.07;683.80;;;9.30;99.90;;;;;;2612052;54;20391;-70
2023/04/07 17:20:50;;;;;;;13.07;11.77;;;9.50;99.90;;;;;;2613016;54;20126;-70
2023/04/07 17:26:38;;;;;;;13.20;10.70;;;9.50;99.90;;;;;;2612067;39;20779;-72
2023/04/07 17:32:26;;;;;;;77.87;44.77;;;9.30;99.90;;;;;;2612641;54;20126;-71
2023/04/07 17:38:15;;;;;;;12.90;11.50;;;9.20;99.90;;;;;;2613288;54;20154;-70
2023/04/07 17:41:25;;;;;;;13.77;10.63;;;9.10;99.90;;;;;;2613013;54;20965;-70
2023/04/07 17:43:51;;;;;;;14.30;12.10;;;9.10;99.90;;;;;;2613412;54;20833;-70
2023/04/07 17:49:39;;;;;;;16.57;14.60;;;9.10;99.90;;;;;;2613395;54;20399;-70
2023/04/07 17:55:27;;;;;;;17.20;15.33;;;9.10;99.90;;;;;;2612408;54;20150;-71
2023/04/07 18:01:15;;;;;;;15.17;13.57;;;9.10;99.90;;;;;;2612306;54;20399;-71
2023/04/07 18:07:03;;;;;;;16.40;14.43;;;9.00;99.90;;;;;;2612316;54;20407;-71
2023/04/07 18:12:51;;;;;;;17.73;16.13;;;8.90;99.90;;;;;;2613094;54;20126;-71
2023/04/07 18:18:39;;;;;;;19.47;16.90;;;8.90;99.90;;;;;;2612830;54;20178;-70
2023/04/07 18:24:27;;;;;;;17.23;15.53;;;8.90;99.90;;;;;;2613374;46;20234;-71
2023/04/07 18:30:15;;;;;;;19.27;17.17;;;8.90;99.90;;;;;;2610745;54;20154;-70
2023/04/07 18:36:05;;;;;;;33.60;25.20;;;8.90;99.90;;;;;;2611683;54;20133;-71
2023/04/07 18:45:59;;;;;;;48.13;38.07;;;8.90;99.90;;;;;;2607390;54;20367;-71
2023/04/07 18:51:47;;;;;;;26.80;24.30;;;8.90;99.90;;;;;;2610463;39;20798;-71
2023/04/07 18:57:34;;;;;;;25.47;22.87;;;8.90;99.90;;;;;;2609920;54;20368;-70
2023/04/07 19:03:22;;;;;;;24.60;22.07;;;8.90;99.90;;;;;;2609805;54;20126;-70
2023/04/07 19:09:09;;;;;;;21.17;19.17;;;8.80;99.90;;;;;;2608187;54;20145;-71
2023/04/07 19:14:57;;;;;;;21.50;18.03;;;8.80;99.90;;;;;;2605861;54;20153;-70
2023/04/07 19:20:45;;;;;;;20.73;18.53;;;8.70;99.90;;;;;;2605210;54;20138;-71
2023/04/07 19:26:33;;;;;;;20.37;18.20;;;8.70;99.90;;;;;;2605537;54;20388;-71
2023/04/07 19:32:22;;;;;;;21.63;19.23;;;8.60;99.90;;;;;;2611904;54;20539;-71
2023/04/07 19:38:10;;;;;;;21.80;18.03;;;8.60;99.90;;;;;;2610699;54;20388;-71
2023/04/07 19:41:25;;;;;;;21.70;19.50;;;8.60;99.90;;;;;;2610958;54;20427;-72
2023/04/07 19:43:52;;;;;;;19.57;17.57;;;8.60;99.90;;;;;;2605644;54;20186;-71
2023/04/07 19:49:39;;;;;;;30.80;23.73;;;8.50;99.90;;;;;;2610343;39;20774;-70
2023/04/07 19:55:28;;;;;;;28.07;23.40;;;8.50;99.90;;;;;;2610460;54;20138;-71
2023/04/07 20:01:16;;;;;;;37.50;30.90;;;8.40;99.90;;;;;;2610212;54;20390;-71
2023/04/07 20:07:04;;;;;;;26.97;24.00;;;8.30;99.90;;;;;;2610005;39;20737;-71
2023/04/07 20:12:52;;;;;;;28.53;25.47;;;8.20;99.90;;;;;;2609770;54;20165;-70
2023/04/07 20:18:39;;;;;;;32.87;27.87;;;8.20;99.90;;;;;;2609312;54;20154;-70
2023/04/07 20:24:27;;;;;;;34.13;25.47;;;8.20;99.90;;;;;;2614286;54;20162;-71
2023/04/07 20:30:15;;;;;;;32.30;27.90;;;8.10;99.90;;;;;;2614832;39;20510;-70
2023/04/07 20:36:03;;;;;;;25.20;22.57;;;8.00;99.90;;;;;;2614603;39;20817;-70
2023/04/07 20:45:57;;;;;;;27.13;23.70;;;8.00;99.90;;;;;;2607848;39;20784;-71
2023/04/07 20:51:44;;;;;;;28.47;25.47;;;8.00;99.90;;;;;;2610312;54;20354;-70
2023/04/07 20:57:32;;;;;;;28.40;22.50;;;7.90;99.90;;;;;;2609640;54;20203;-71
2023/04/07 21:00:36;;;;;;;27.97;25.10;;;7.90;99.90;;;;;;2609893;54;20434;-71
2023/04/07 21:03:01;;;;;;;28.97;24.10;;;7.90;99.90;;;;;;2611666;54;20185;-71
2023/04/07 21:06:05;;;;;;;34.63;26.27;;;7.90;99.90;;;;;;2615153;39;20768;-71
2023/04/07 21:08:31;;;;;;;30.43;25.13;;;7.80;99.90;;;;;;2613823;54;20833;-71
2023/04/07 21:14:19;;;;;;;34.70;26.77;;;7.70;99.90;;;;;;2614262;54;20692;-70
2023/04/07 21:20:07;;;;;;;31.23;27.90;;;7.50;99.90;;;;;;2614679;54;20368;-70
2023/04/07 21:25:59;;;;;;;32.47;26.37;;;7.30;99.90;;;;;;2614562;54;20403;-71
2023/04/07 21:31:47;;;;;;;28.73;25.60;;;7.10;99.90;;;;;;2614552;54;20419;-70
2023/04/07 21:37:35;;;;;;;37.17;28.13;;;7.00;99.90;;;;;;2613952;54;20523;-71
2023/04/07 21:46:46;;;;;;;35.07;28.27;;;6.90;99.90;;;;;;2611216;54;20406;-71
2023/04/07 21:52:34;;;;;;;31.17;26.47;;;6.60;99.90;;;;;;2612188;54;20427;-70
2023/04/07 21:58:22;;;;;;;34.20;27.97;;;6.40;99.90;;;;;;2613107;54;20419;-71
2023/04/07 22:04:10;;;;;;;35.33;27.93;;;6.20;99.90;;;;;;2613755;39;20543;-70
2023/04/07 22:09:58;;;;;;;35.47;29.47;;;6.00;99.90;;;;;;2613545;39;20770;-70
2023/04/07 22:15:46;;;;;;;41.20;29.63;;;5.80;99.90;;;;;;2610592;54;20122;-71
2023/04/07 22:21:34;;;;;;;57.53;32.53;;;5.90;99.90;;;;;;2613745;54;20130;-70
2023/04/07 22:27:22;;;;;;;40.20;29.03;;;5.70;99.90;;;;;;2612566;54;20366;-71
2023/04/07 22:33:10;;;;;;;33.47;29.77;;;5.80;99.90;;;;;;2612689;54;20122;-71
2023/04/07 22:38:57;;;;;;;82.40;33.83;;;5.80;99.90;;;;;;2612888;54;20370;-70
2023/04/07 22:44:56;;;;;;;178.63;46.27;;;5.70;99.90;;;;;;2610460;47;20139;-70
2023/04/07 22:50:43;;;;;;;335.90;73.50;;;5.70;99.90;;;;;;2610208;54;20238;-71
2023/04/07 22:56:30;;;;;;;301.90;60.67;;;5.70;99.90;;;;;;2611416;54;20137;-71
2023/04/07 23:02:18;;;;;;;388.50;61.77;;;5.50;99.90;;;;;;2611245;54;20467;-70
2023/04/07 23:05:02;;;;;;;298.57;51.17;;;5.50;99.90;;;;;;2610679;54;20410;-70
2023/04/07 23:07:28;;;;;;;222.10;51.57;;;5.50;99.90;;;;;;2609879;54;20261;-70
2023/04/07 23:13:17;;;;;;;106.83;40.23;;;5.40;99.90;;;;;;2611362;54;20118;-71
2023/04/07 23:19:10;;;;;;;77.27;33.80;;;5.30;99.90;;;;;;2610936;54;20367;-70
2023/04/07 23:24:57;;;;;;;170.83;41.33;;;5.20;99.90;;;;;;2610427;54;20363;-69
2023/04/07 23:30:45;;;;;;;243.77;48.97;;;5.10;99.90;;;;;;2612724;54;20230;-71
2023/04/07 23:36:33;;;;;;;119.20;39.23;;;5.00;99.90;;;;;;2611952;54;20165;-71
2023/04/07 23:49:05;;;;;;;151.83;32.83;;;4.90;99.90;;;;;;2612823;39;20692;-71
2023/04/07 23:54:52;;;;;;;238.37;41.30;;;4.90;99.90;;;;;;2612425;54;20395;-69
